createdAt,value
2018-08-23T00:01:17.647Z,26.38
2018-08-23T00:03:41.645Z,26.19
2018-08-23T00:06:05.596Z,26.22
2018-08-23T00:08:29.455Z,25.96
2018-08-23T00:10:54.150Z,25.86
2018-08-23T00:13:18.144Z,26.05
2018-08-23T00:15:42.042Z,26.09
2018-08-23T00:18:05.939Z,26.12
2018-08-23T00:20:29.879Z,26.02
2018-08-23T00:22:53.814Z,25.95
2018-08-23T00:25:17.692Z,25.94
2018-08-23T00:27:42.971Z,25.89
2018-08-23T00:30:09.928Z,25.82
2018-08-23T00:32:33.799Z,25.91
2018-08-23T00:34:57.712Z,25.90
2018-08-23T00:37:21.562Z,25.91
2018-08-23T00:39:45.780Z,25.90
2018-08-23T00:42:13.152Z,25.82
2018-08-23T00:44:54.405Z,25.73
2018-08-23T00:47:18.540Z,25.75
2018-08-23T00:49:42.491Z,25.67
2018-08-23T00:52:06.388Z,25.71
2018-08-23T00:54:30.291Z,25.66
2018-08-23T00:56:54.196Z,25.63
2018-08-23T00:59:18.046Z,25.61
2018-08-23T01:02:00.167Z,25.71
2018-08-23T01:04:24.037Z,25.53
2018-08-23T01:06:47.963Z,25.43
2018-08-23T01:09:12.796Z,25.61
2018-08-23T01:11:36.831Z,25.61
2018-08-23T01:14:00.681Z,25.45
2018-08-23T01:16:24.571Z,25.30
2018-08-23T01:18:48.499Z,25.44
2018-08-23T01:21:12.409Z,25.50
2018-08-23T01:23:36.799Z,25.40
2018-08-23T01:26:00.707Z,25.41
2018-08-23T01:28:24.596Z,25.34
2018-08-23T01:30:49.015Z,25.29
2018-08-23T01:33:15.020Z,25.29
2018-08-23T01:35:40.480Z,25.12
2018-08-23T01:38:04.393Z,25.26
2018-08-23T01:40:28.282Z,25.07
2018-08-23T01:42:52.160Z,25.04
2018-08-23T01:45:16.038Z,25.07
2018-08-23T01:47:55.910Z,24.91
2018-08-23T01:50:19.752Z,24.74
2018-08-23T01:52:45.667Z,24.82
2018-08-23T01:55:10.325Z,24.82
2018-08-23T01:57:35.390Z,24.86
2018-08-23T01:59:59.251Z,24.76
2018-08-23T02:02:23.499Z,24.76
2018-08-23T02:04:47.975Z,24.75
2018-08-23T02:07:11.825Z,24.77
2018-08-23T02:09:35.746Z,24.36
2018-08-23T02:11:59.628Z,24.63
2018-08-23T02:14:23.480Z,24.67
2018-08-23T02:16:52.202Z,24.66
2018-08-23T02:19:16.335Z,24.24
2018-08-23T02:21:40.250Z,24.21
2018-08-23T02:24:04.130Z,24.18
2018-08-23T02:26:28.023Z,23.82
2018-08-23T02:28:51.867Z,22.99
2018-08-23T02:31:15.781Z,23.79
2018-08-23T02:33:39.653Z,23.82
2018-08-23T02:36:22.319Z,23.83
2018-08-23T02:38:47.886Z,23.56
2018-08-23T02:41:11.793Z,23.44
2018-08-23T02:43:35.653Z,23.54
2018-08-23T02:46:02.202Z,23.51
2018-08-23T02:48:26.069Z,23.46
2018-08-23T02:50:50.656Z,23.61
2018-08-23T02:53:29.282Z,23.22
2018-08-23T02:55:53.794Z,23.22
2018-08-23T02:58:17.704Z,23.30
2018-08-23T03:00:45.436Z,23.30
2018-08-23T03:03:09.444Z,23.55
2018-08-23T03:05:33.470Z,23.50
2018-08-23T03:07:57.395Z,23.54
2018-08-23T03:10:27.862Z,23.43
2018-08-23T03:12:51.755Z,23.42
2018-08-23T03:15:16.711Z,23.32
2018-08-23T03:17:47.653Z,23.37
2018-08-23T03:20:17.439Z,23.40
2018-08-23T03:22:42.022Z,23.40
2018-08-23T03:25:07.634Z,23.37
2018-08-23T03:27:32.507Z,23.39
2018-08-23T03:29:56.364Z,23.40
2018-08-23T03:32:20.259Z,23.35
2018-08-23T03:34:44.115Z,23.24
2018-08-23T03:37:07.976Z,23.32
2018-08-23T03:39:31.825Z,23.23
2018-08-23T03:41:55.941Z,23.31
2018-08-23T03:44:25.839Z,23.34
2018-08-23T03:46:55.420Z,23.30
2018-08-23T03:49:24.709Z,23.16
2018-08-23T03:51:48.630Z,23.12
2018-08-23T03:54:12.572Z,23.03
2018-08-23T03:56:36.476Z,22.83
2018-08-23T03:59:00.356Z,22.65
2018-08-23T04:01:24.258Z,22.80
2018-08-23T04:03:48.210Z,22.71
2018-08-23T04:06:46.971Z,22.96
2018-08-23T04:09:10.854Z,22.94
2018-08-23T04:11:34.709Z,22.88
2018-08-23T04:13:58.975Z,22.74
2018-08-23T04:16:27.784Z,22.77
2018-08-23T04:18:51.680Z,22.80
2018-08-23T04:21:15.564Z,22.61
2018-08-23T04:23:39.559Z,22.66
2018-08-23T04:26:03.458Z,22.56
2018-08-23T04:28:27.318Z,22.40
2018-08-23T04:30:51.247Z,22.71
2018-08-23T04:33:15.128Z,22.20
2018-08-23T04:35:39.007Z,22.35
2018-08-23T04:38:03.101Z,22.38
2018-08-23T04:40:26.954Z,22.34
2018-08-23T04:42:50.842Z,22.34
2018-08-23T04:45:33.168Z,22.37
2018-08-23T04:48:04.442Z,22.28
2018-08-23T04:50:28.317Z,21.95
2018-08-23T04:52:52.184Z,21.93
2018-08-23T04:55:16.056Z,22.13
2018-08-23T04:57:39.956Z,22.07
2018-08-23T05:00:03.848Z,22.24
2018-08-23T05:02:28.006Z,22.14
2018-08-23T05:04:51.951Z,21.88
2018-08-23T05:07:15.811Z,21.99
2018-08-23T05:09:39.729Z,21.87
2018-08-23T05:12:03.578Z,21.78
2018-08-23T05:14:27.450Z,21.99
2018-08-23T05:16:51.332Z,21.69
2018-08-23T05:19:15.274Z,21.70
2018-08-23T05:21:39.166Z,21.90
2018-08-23T05:24:09.226Z,21.62
2018-08-23T05:26:33.136Z,21.93
2018-08-23T05:29:02.780Z,21.67
2018-08-23T05:31:27.479Z,21.51
2018-08-23T05:33:51.427Z,21.91
2018-08-23T05:36:17.054Z,21.84
2018-08-23T05:38:40.946Z,21.73
2018-08-23T05:41:10.097Z,21.68
2018-08-23T05:43:33.945Z,21.51
2018-08-23T05:45:58.047Z,21.75
2018-08-23T05:48:29.305Z,21.42
2018-08-23T05:50:53.158Z,21.61
2018-08-23T05:53:18.012Z,21.39
2018-08-23T05:55:41.884Z,20.95
2018-08-23T05:58:14.448Z,21.44
2018-08-23T06:00:38.292Z,21.20
2018-08-23T06:03:02.201Z,21.47
2018-08-23T06:05:26.093Z,21.38
2018-08-23T06:07:49.958Z,21.49
2018-08-23T06:10:13.831Z,21.85
2018-08-23T06:12:37.709Z,21.57
2018-08-23T06:15:01.573Z,21.60
2018-08-23T06:17:25.514Z,21.87
2018-08-23T06:19:49.418Z,21.73
2018-08-23T06:22:13.297Z,21.89
2018-08-23T06:24:37.217Z,21.89
2018-08-23T06:27:02.481Z,21.54
2018-08-23T06:29:28.528Z,22.16
2018-08-23T06:32:11.415Z,22.20
2018-08-23T06:34:38.011Z,22.00
2018-08-23T06:37:01.887Z,22.14
2018-08-23T06:39:25.777Z,21.80
2018-08-23T06:41:49.726Z,21.87
2018-08-23T06:44:13.608Z,22.35
2018-08-23T06:46:37.509Z,22.68
2018-08-23T06:49:01.385Z,22.63
2018-08-23T06:51:25.284Z,22.58
2018-08-23T06:53:51.165Z,22.70
2018-08-23T06:56:15.799Z,22.80
2018-08-23T06:58:39.693Z,22.22
2018-08-23T07:01:04.331Z,22.44
2018-08-23T07:03:28.211Z,23.00
2018-08-23T07:05:52.123Z,22.73
2018-08-23T07:08:16.083Z,23.29
2018-08-23T07:10:39.990Z,23.66
2018-08-23T07:13:03.819Z,23.33
2018-08-23T07:15:28.500Z,22.70
2018-08-23T07:17:52.371Z,23.17
2018-08-23T07:20:17.191Z,22.74
2018-08-23T07:22:41.191Z,23.33
2018-08-23T07:25:05.537Z,23.44
2018-08-23T07:27:29.432Z,23.66
2018-08-23T07:29:55.304Z,23.50
2018-08-23T07:32:21.312Z,23.01
2018-08-23T07:35:18.190Z,23.27
2018-08-23T07:37:45.500Z,23.82
2018-08-23T07:40:11.653Z,23.48
2018-08-23T07:42:36.307Z,23.83
2018-08-23T07:45:00.607Z,23.94
2018-08-23T07:47:24.846Z,23.79
2018-08-23T07:49:48.725Z,23.96
2018-08-23T07:52:12.818Z,24.37
2018-08-23T07:54:36.727Z,24.03
2018-08-23T07:57:00.610Z,24.34
2018-08-23T07:59:24.464Z,24.20
2018-08-23T08:01:48.443Z,24.19
2018-08-23T08:04:12.311Z,24.44
2018-08-23T08:06:36.597Z,24.31
2018-08-23T08:09:01.102Z,24.80
2018-08-23T08:11:24.989Z,25.30
2018-08-23T08:13:53.000Z,25.44
2018-08-23T08:16:17.771Z,25.22
2018-08-23T08:18:41.613Z,25.51
2018-08-23T08:21:05.505Z,25.33
2018-08-23T08:23:29.561Z,25.80
2018-08-23T08:25:53.490Z,25.65
2018-08-23T08:28:18.214Z,25.69
2018-08-23T08:30:43.791Z,25.72
2018-08-23T08:33:08.615Z,26.15
2018-08-23T08:35:32.417Z,25.84
2018-08-23T08:37:56.281Z,26.05
2018-08-23T08:40:24.231Z,26.33
2018-08-23T08:42:48.103Z,26.49
2018-08-23T08:45:13.131Z,26.49
2018-08-23T08:47:37.022Z,26.88
2018-08-23T08:50:00.911Z,26.77
2018-08-23T08:52:24.834Z,27.18
2018-08-23T08:54:48.697Z,27.15
2018-08-23T08:57:12.650Z,26.55
2018-08-23T08:59:36.480Z,26.45
2018-08-23T09:02:00.726Z,26.65
2018-08-23T09:04:29.962Z,27.04
2018-08-23T09:06:53.825Z,26.72
2018-08-23T09:09:35.577Z,27.15
2018-08-23T09:12:01.715Z,27.46
2018-08-23T09:14:25.638Z,27.39
2018-08-23T09:16:49.537Z,27.07
2018-08-23T09:19:13.426Z,27.16
2018-08-23T09:21:37.324Z,26.73
2018-08-23T09:24:14.867Z,27.55
2018-08-23T09:26:39.228Z,27.61
2018-08-23T09:29:03.127Z,28.18
2018-08-23T09:31:26.976Z,27.72
2018-08-23T09:33:50.917Z,28.02
2018-08-23T09:36:14.976Z,28.18
2018-08-23T09:38:38.895Z,27.74
2018-08-23T09:41:02.780Z,28.19
2018-08-23T09:43:26.666Z,28.65
2018-08-23T09:45:50.597Z,29.04
2018-08-23T09:48:14.488Z,28.47
2018-08-23T09:50:38.484Z,29.00
2018-08-23T09:53:02.307Z,28.83
2018-08-23T09:55:28.433Z,28.99
2018-08-23T09:57:52.297Z,28.57
2018-08-23T10:00:21.490Z,29.35
2018-08-23T10:02:50.852Z,29.72
2018-08-23T10:05:20.201Z,29.19
2018-08-23T10:07:49.482Z,28.97
2018-08-23T10:10:18.754Z,29.87
2018-08-23T10:12:48.060Z,29.41
2018-08-23T10:15:17.393Z,30.27
2018-08-23T10:17:46.588Z,30.11
2018-08-23T10:20:15.852Z,29.70
2018-08-23T10:22:45.122Z,30.35
2018-08-23T10:25:26.092Z,29.66
2018-08-23T10:27:50.127Z,30.39
2018-08-23T10:30:14.075Z,30.00
2018-08-23T10:32:38.029Z,30.55
2018-08-23T10:35:01.927Z,30.32
2018-08-23T10:37:25.895Z,30.15
2018-08-23T10:39:50.032Z,29.58
2018-08-23T10:42:15.866Z,29.61
2018-08-23T10:44:39.814Z,29.99
2018-08-23T10:47:03.714Z,30.50
2018-08-23T10:49:27.629Z,30.57
2018-08-23T10:51:51.532Z,30.93
2018-08-23T10:54:15.491Z,30.12
2018-08-23T10:56:39.388Z,30.83
2018-08-23T10:59:03.323Z,30.64
2018-08-23T11:01:27.257Z,30.90
2018-08-23T11:03:51.221Z,30.93
2018-08-23T11:06:15.144Z,31.34
2018-08-23T11:08:39.326Z,31.98
2018-08-23T11:11:08.734Z,31.91
2018-08-23T11:13:48.761Z,31.08
2018-08-23T11:16:17.896Z,31.08
2018-08-23T11:18:47.128Z,30.99
2018-08-23T11:21:15.969Z,31.22
2018-08-23T11:23:39.974Z,30.95
2018-08-23T11:26:03.927Z,31.05
2018-08-23T11:28:28.005Z,31.44
2018-08-23T11:30:52.611Z,31.50
2018-08-23T11:33:16.762Z,31.92
2018-08-23T11:35:40.719Z,31.50
2018-08-23T11:38:05.335Z,31.95
2018-08-23T11:40:29.250Z,32.45
2018-08-23T11:42:53.320Z,31.97
2018-08-23T11:45:17.193Z,32.00
2018-08-23T11:47:41.108Z,31.32
2018-08-23T11:50:05.385Z,31.63
2018-08-23T11:52:29.327Z,32.65
2018-08-23T11:54:53.229Z,33.00
2018-08-23T11:57:17.339Z,31.81
2018-08-23T11:59:41.281Z,31.65
2018-08-23T12:02:05.403Z,33.07
2018-08-23T12:04:29.579Z,32.72
2018-08-23T12:06:56.433Z,32.39
2018-08-23T12:09:22.824Z,33.67
2018-08-23T12:11:46.725Z,32.78
2018-08-23T12:14:11.720Z,33.13
2018-08-23T12:16:35.647Z,32.83
2018-08-23T12:18:59.530Z,32.57
2018-08-23T12:21:23.511Z,32.59
2018-08-23T12:23:47.416Z,32.36
2018-08-23T12:26:11.542Z,31.73
2018-08-23T12:28:40.641Z,32.45
2018-08-23T12:31:04.599Z,31.59
2018-08-23T12:33:28.637Z,31.33
2018-08-23T12:35:52.611Z,31.72
2018-08-23T12:38:21.807Z,32.60
2018-08-23T12:40:51.069Z,32.43
2018-08-23T12:43:14.993Z,32.24
2018-08-23T12:45:40.473Z,31.80
2018-08-23T12:48:04.381Z,32.55
2018-08-23T12:50:28.368Z,31.95
2018-08-23T12:52:52.312Z,32.27
2018-08-23T12:55:16.269Z,32.52
2018-08-23T12:57:40.175Z,32.70
2018-08-23T13:00:04.142Z,31.96
2018-08-23T13:02:28.649Z,32.24
2018-08-23T13:04:52.558Z,31.73
2018-08-23T13:07:16.478Z,32.22
2018-08-23T13:09:40.416Z,32.55
2018-08-23T13:12:04.331Z,32.77
2018-08-23T13:14:28.339Z,33.24
2018-08-23T13:16:52.247Z,32.36
2018-08-23T13:19:16.199Z,32.21
2018-08-23T13:21:40.154Z,31.84
2018-08-23T13:24:04.197Z,33.01
2018-08-23T13:26:33.567Z,32.71
2018-08-23T13:28:57.483Z,33.28
2018-08-23T13:31:21.438Z,33.25
2018-08-23T13:33:46.968Z,32.47
2018-08-23T13:36:10.933Z,33.16
2018-08-23T13:38:34.830Z,33.04
2018-08-23T13:40:58.765Z,32.31
2018-08-23T13:43:22.681Z,31.74
2018-08-23T13:45:46.606Z,32.02
2018-08-23T13:48:10.556Z,33.42
2018-08-23T13:50:34.524Z,32.51
2018-08-23T13:52:58.428Z,32.47
2018-08-23T13:55:22.923Z,32.35
2018-08-23T13:57:46.888Z,33.24
2018-08-23T14:00:14.964Z,32.97
2018-08-23T14:02:38.945Z,33.47
2018-08-23T14:05:02.976Z,32.68
2018-08-23T14:07:26.922Z,32.76
2018-08-23T14:09:50.910Z,32.92
2018-08-23T14:12:14.872Z,34.13
2018-08-23T14:14:38.846Z,33.68
2018-08-23T14:17:02.916Z,32.80
2018-08-23T14:19:26.935Z,32.55
2018-08-23T14:21:50.841Z,32.22
2018-08-23T14:24:14.811Z,32.53
2018-08-23T14:26:38.729Z,32.65
2018-08-23T14:29:02.685Z,34.05
2018-08-23T14:31:26.609Z,33.71
2018-08-23T14:33:50.553Z,33.53
2018-08-23T14:36:14.574Z,33.12
2018-08-23T14:38:38.519Z,33.35
2018-08-23T14:41:02.459Z,33.27
2018-08-23T14:43:26.385Z,33.46
2018-08-23T14:45:50.315Z,33.62
2018-08-23T14:48:20.826Z,33.83
2018-08-23T14:50:44.773Z,33.72
2018-08-23T14:53:08.678Z,33.74
2018-08-23T14:55:37.896Z,32.99
2018-08-23T14:58:01.820Z,33.32
2018-08-23T15:00:25.691Z,34.09
2018-08-23T15:02:49.667Z,33.61
2018-08-23T15:05:13.775Z,33.51
2018-08-23T15:07:37.715Z,33.21
2018-08-23T15:10:01.534Z,33.92
2018-08-23T15:12:25.389Z,33.91
2018-08-23T15:14:49.673Z,34.00
2018-08-23T15:17:13.629Z,33.07
2018-08-23T15:19:37.502Z,33.05
2018-08-23T15:22:01.376Z,33.24
2018-08-23T15:24:25.299Z,32.87
2018-08-23T15:26:49.399Z,33.58
2018-08-23T15:29:13.761Z,32.86
2018-08-23T15:31:37.647Z,33.50
2018-08-23T15:34:01.634Z,32.89
2018-08-23T15:36:25.546Z,32.15
2018-08-23T15:38:49.501Z,32.29
2018-08-23T15:41:13.382Z,32.45
2018-08-23T15:43:37.279Z,32.54
2018-08-23T15:46:01.174Z,32.92
2018-08-23T15:48:25.077Z,32.48
2018-08-23T15:50:49.065Z,32.55
2018-08-23T15:53:12.962Z,32.29
2018-08-23T15:55:37.015Z,31.92
2018-08-23T15:58:00.789Z,32.16
2018-08-23T16:00:24.656Z,32.78
2018-08-23T16:02:49.335Z,31.70
2018-08-23T16:05:13.258Z,31.74
2018-08-23T16:07:37.153Z,31.77
2018-08-23T16:10:01.241Z,31.50
2018-08-23T16:12:25.163Z,31.96
2018-08-23T16:14:49.107Z,31.70
2018-08-23T16:17:18.297Z,32.19
2018-08-23T16:19:47.444Z,31.93
2018-08-23T16:22:11.384Z,31.73
2018-08-23T16:24:35.333Z,31.57
2018-08-23T16:27:04.245Z,31.28
2018-08-23T16:29:28.169Z,30.67
2018-08-23T16:31:52.169Z,31.00
2018-08-23T16:34:16.076Z,31.08
2018-08-23T16:36:40.033Z,30.36
2018-08-23T16:39:05.151Z,30.98
2018-08-23T16:41:29.127Z,31.01
2018-08-23T16:43:52.992Z,30.23
2018-08-23T16:46:16.958Z,30.89
2018-08-23T16:48:40.855Z,30.86
2018-08-23T16:51:04.812Z,30.39
2018-08-23T16:53:28.686Z,30.40
2018-08-23T16:55:52.629Z,30.36
2018-08-23T16:58:16.639Z,30.05
2018-08-23T17:00:40.496Z,30.38
2018-08-23T17:03:04.459Z,29.71
2018-08-23T17:05:28.359Z,29.95
2018-08-23T17:07:52.249Z,30.00
2018-08-23T17:10:16.286Z,29.66
2018-08-23T17:12:40.154Z,30.22
2018-08-23T17:15:04.385Z,31.10
2018-08-23T17:17:32.836Z,30.17
2018-08-23T17:19:57.044Z,30.83
2018-08-23T17:22:20.972Z,30.02
2018-08-23T17:24:44.951Z,29.94
2018-08-23T17:27:09.764Z,30.18
2018-08-23T17:29:33.662Z,30.76
2018-08-23T17:31:57.554Z,29.72
2018-08-23T17:34:21.458Z,29.94
2018-08-23T17:36:45.388Z,29.85
2018-08-23T17:39:09.910Z,29.84
2018-08-23T17:41:33.799Z,29.87
2018-08-23T17:43:57.714Z,29.83
2018-08-23T17:46:21.645Z,30.13
2018-08-23T17:48:45.584Z,29.84
2018-08-23T17:51:09.478Z,29.85
2018-08-23T17:53:33.580Z,30.35
2018-08-23T17:55:57.434Z,30.85
2018-08-23T17:58:21.370Z,31.10
2018-08-23T18:00:45.272Z,30.18
2018-08-23T18:03:09.416Z,30.66
2018-08-23T18:05:33.508Z,31.24
2018-08-23T18:07:57.378Z,31.04
2018-08-23T18:10:21.276Z,30.95
2018-08-23T18:12:45.220Z,30.72
2018-08-23T18:15:10.006Z,30.49
2018-08-23T18:17:33.931Z,31.01
2018-08-23T18:19:57.802Z,31.05
2018-08-23T18:22:21.760Z,30.82
2018-08-23T18:24:45.763Z,31.02
2018-08-23T18:27:09.672Z,30.79
2018-08-23T18:29:33.593Z,30.70
2018-08-23T18:31:57.504Z,30.04
2018-08-23T18:34:21.435Z,30.26
2018-08-23T18:36:45.414Z,29.95
2018-08-23T18:39:10.923Z,30.52
2018-08-23T18:41:34.891Z,30.43
2018-08-23T18:43:58.836Z,30.36
2018-08-23T18:46:22.733Z,30.55
2018-08-23T18:48:46.693Z,30.14
2018-08-23T18:51:10.607Z,30.45
2018-08-23T18:53:34.508Z,30.33
2018-08-23T18:55:58.459Z,30.51
2018-08-23T18:58:23.232Z,30.43
2018-08-23T19:00:47.171Z,30.35
2018-08-23T19:03:11.130Z,30.07
2018-08-23T19:05:35.135Z,29.97
2018-08-23T19:07:59.024Z,30.02
2018-08-23T19:10:23.081Z,30.01
2018-08-23T19:12:47.057Z,30.03
2018-08-23T19:15:10.958Z,29.76
2018-08-23T19:17:39.840Z,29.95
2018-08-23T19:20:03.985Z,29.75
2018-08-23T19:22:27.906Z,29.68
2018-08-23T19:24:51.908Z,29.59
2018-08-23T19:27:16.035Z,29.64
2018-08-23T19:29:39.978Z,29.43
2018-08-23T19:32:04.145Z,29.41
2018-08-23T19:34:27.827Z,29.30
2018-08-23T19:36:51.771Z,29.42
2018-08-23T19:39:15.655Z,29.31
2018-08-23T19:41:39.602Z,29.31
2018-08-23T19:44:03.499Z,29.24
2018-08-23T19:46:32.602Z,29.25
2018-08-23T19:49:01.704Z,29.22
2018-08-23T19:51:25.628Z,29.21
2018-08-23T19:53:49.646Z,29.12
2018-08-23T19:56:13.551Z,29.22
2018-08-23T19:58:37.545Z,29.20
2018-08-23T20:01:01.497Z,29.11
2018-08-23T20:03:25.391Z,29.15
2018-08-23T20:05:49.502Z,29.14
2018-08-23T20:08:13.380Z,29.08
2018-08-23T20:10:37.304Z,29.13
2018-08-23T20:13:01.248Z,29.08
2018-08-23T20:15:26.362Z,28.98
2018-08-23T20:17:50.314Z,29.01
2018-08-23T20:20:14.184Z,28.98
2018-08-23T20:22:38.064Z,28.83
2018-08-23T20:25:02.057Z,28.57
2018-08-23T20:27:25.896Z,28.52
2018-08-23T20:29:49.892Z,28.46
2018-08-23T20:32:13.804Z,28.65
2018-08-23T20:34:37.731Z,28.61
2018-08-23T20:37:01.677Z,28.51
2018-08-23T20:39:25.746Z,28.43
2018-08-23T20:41:49.564Z,28.39
2018-08-23T20:44:13.537Z,28.27
2018-08-23T20:46:37.739Z,28.32
2018-08-23T20:49:01.773Z,28.24
2018-08-23T20:51:25.698Z,28.23
2018-08-23T20:53:49.664Z,28.31
2018-08-23T20:56:13.647Z,28.03
2018-08-23T20:58:37.541Z,28.11
2018-08-23T21:01:01.476Z,28.06
2018-08-23T21:03:25.368Z,27.86
2018-08-23T21:05:49.301Z,27.84
2018-08-23T21:08:13.188Z,27.80
2018-08-23T21:10:37.068Z,27.79
2018-08-23T21:13:01.336Z,27.65
2018-08-23T21:15:25.230Z,27.16
2018-08-23T21:17:49.206Z,27.62
2018-08-23T21:20:13.189Z,27.11
2018-08-23T21:22:37.100Z,27.46
2018-08-23T21:25:01.441Z,27.38
2018-08-23T21:27:25.342Z,27.22
2018-08-23T21:29:49.308Z,26.57
2018-08-23T21:32:13.242Z,27.07
2018-08-23T21:34:37.134Z,26.90
2018-08-23T21:37:01.007Z,27.01
2018-08-23T21:39:24.878Z,26.70
2018-08-23T21:41:48.740Z,26.73
2018-08-23T21:44:12.651Z,26.86
2018-08-23T21:46:36.562Z,26.85
2018-08-23T21:49:00.783Z,26.76
2018-08-23T21:51:24.705Z,26.69
2018-08-23T21:53:48.683Z,26.76
2018-08-23T21:56:12.718Z,26.11
2018-08-23T21:58:36.705Z,26.03
2018-08-23T22:01:06.008Z,26.26
2018-08-23T22:03:30.195Z,25.91
2018-08-23T22:05:54.118Z,26.08
2018-08-23T22:08:18.011Z,25.61
2018-08-23T22:10:41.936Z,25.89
2018-08-23T22:13:05.968Z,26.05
2018-08-23T22:15:29.871Z,26.04
2018-08-23T22:17:53.774Z,26.12
2018-08-23T22:20:18.002Z,25.87
2018-08-23T22:22:41.905Z,25.92
2018-08-23T22:25:06.136Z,25.79
2018-08-23T22:27:30.075Z,25.01
2018-08-23T22:29:53.941Z,24.70
2018-08-23T22:32:18.105Z,24.41
2018-08-23T22:34:41.998Z,24.46
2018-08-23T22:37:05.902Z,25.32
2018-08-23T22:39:30.535Z,25.66
2018-08-23T22:41:54.406Z,25.65
2018-08-23T22:44:18.601Z,25.51
2018-08-23T22:46:42.522Z,25.27
2018-08-23T22:49:06.399Z,25.54
2018-08-23T22:51:30.305Z,25.66
2018-08-23T22:53:54.195Z,25.79
2018-08-23T22:56:18.260Z,25.63
2018-08-23T22:58:42.135Z,25.55
2018-08-23T23:01:06.132Z,25.62
2018-08-23T23:03:35.246Z,25.22
2018-08-23T23:06:05.627Z,25.40
2018-08-23T23:08:29.684Z,24.85
2018-08-23T23:10:53.589Z,25.12
2018-08-23T23:13:17.666Z,24.79
2018-08-23T23:15:41.554Z,25.29
2018-08-23T23:18:05.857Z,25.10
2018-08-23T23:20:29.920Z,24.77
2018-08-23T23:22:53.797Z,24.07
2018-08-23T23:25:17.685Z,23.41
2018-08-23T23:27:41.604Z,24.34
2018-08-23T23:30:06.175Z,23.95
2018-08-23T23:32:30.075Z,24.46
2018-08-23T23:34:54.371Z,24.55
2018-08-23T23:37:18.293Z,24.85
2018-08-23T23:39:42.186Z,25.04
2018-08-23T23:42:06.133Z,25.10
2018-08-23T23:44:30.090Z,25.24
2018-08-23T23:46:53.956Z,25.09
2018-08-23T23:49:17.880Z,25.16
2018-08-23T23:51:41.873Z,24.99
2018-08-23T23:54:05.788Z,25.13
2018-08-23T23:56:29.717Z,25.07
2018-08-23T23:58:53.614Z,25.14
